sensor_id;sensor_type;location;lat;lon;timestamp;pressure;altitude;pressure_sealevel;temperature;humidity
2711;BME280;20721;47.402;8.550;2023-07-02T00:00:59;95727;;;20.42;59.17
2711;BME280;20721;47.402;8.550;2023-07-02T00:01:57;95725;;;20.43;59.21
2711;BME280;20721;47.402;8.550;2023-07-02T00:02:59;95725;;;20.42;59.27
2711;BME280;20721;47.402;8.550;2023-07-02T00:03:57;95728;;;20.45;59.16
2711;BME280;20721;47.402;8.550;2023-07-02T00:06:57;95730;;;20.49;59.10
2711;BME280;20721;47.402;8.550;2023-07-02T00:07:57;95726;;;20.51;59.02
2711;BME280;20721;47.402;8.550;2023-07-02T00:09:57;95728;;;20.50;59.14
2711;BME280;20721;47.402;8.550;2023-07-02T00:10:57;95724;;;20.51;59.10
2711;BME280;20721;47.402;8.550;2023-07-02T00:12:57;95724;;;20.55;59.08
2711;BME280;20721;47.402;8.550;2023-07-02T00:13:57;95725;;;20.58;59.00
2711;BME280;20721;47.402;8.550;2023-07-02T00:14:57;95729;;;20.49;59.33
2711;BME280;20721;47.402;8.550;2023-07-02T00:15:58;95725;;;20.46;59.21
2711;BME280;20721;47.402;8.550;2023-07-02T00:16:57;95722;;;20.45;59.30
2711;BME280;20721;47.402;8.550;2023-07-02T00:17:57;95722;;;20.46;59.35
2711;BME280;20721;47.402;8.550;2023-07-02T00:18:58;95720;;;20.45;59.31
2711;BME280;20721;47.402;8.550;2023-07-02T00:19:57;95719;;;20.47;59.41
2711;BME280;20721;47.402;8.550;2023-07-02T00:20:57;95720;;;20.50;59.28
2711;BME280;20721;47.402;8.550;2023-07-02T00:21:58;95719;;;20.52;59.17
2711;BME280;20721;47.402;8.550;2023-07-02T00:23:57;95719;;;20.56;59.12
2711;BME280;20721;47.402;8.550;2023-07-02T00:24:57;95722;;;20.57;59.11
2711;BME280;20721;47.402;8.550;2023-07-02T00:25:57;95722;;;20.60;58.96
2711;BME280;20721;47.402;8.550;2023-07-02T00:26:57;95722;;;20.63;58.89
2711;BME280;20721;47.402;8.550;2023-07-02T00:27:57;95722;;;20.62;58.84
2711;BME280;20721;47.402;8.550;2023-07-02T00:29:57;95721;;;20.63;58.78
2711;BME280;20721;47.402;8.550;2023-07-02T00:30:57;95718;;;20.66;59.51
2711;BME280;20721;47.402;8.550;2023-07-02T00:31:57;95725;;;20.69;59.72
2711;BME280;20721;47.402;8.550;2023-07-02T00:32:57;95728;;;20.73;59.83
2711;BME280;20721;47.402;8.550;2023-07-02T00:33:57;95726;;;20.75;59.92
2711;BME280;20721;47.402;8.550;2023-07-02T00:34:58;95728;;;20.73;59.85
2711;BME280;20721;47.402;8.550;2023-07-02T00:36:00;95730;;;20.64;60.53
2711;BME280;20721;47.402;8.550;2023-07-02T00:36:57;95725;;;20.61;60.83
2711;BME280;20721;47.402;8.550;2023-07-02T00:37:57;95729;;;20.59;61.12
2711;BME280;20721;47.402;8.550;2023-07-02T00:40:57;95735;;;20.60;62.48
2711;BME280;20721;47.402;8.550;2023-07-02T00:42:04;95733;;;20.58;62.40
2711;BME280;20721;47.402;8.550;2023-07-02T00:42:57;95732;;;20.54;63.04
2711;BME280;20721;47.402;8.550;2023-07-02T00:43:57;95734;;;20.44;62.33
2711;BME280;20721;47.402;8.550;2023-07-02T00:45:02;95730;;;20.28;63.21
2711;BME280;20721;47.402;8.550;2023-07-02T00:45:57;95730;;;20.24;63.59
2711;BME280;20721;47.402;8.550;2023-07-02T00:46:57;95734;;;20.22;63.91
2711;BME280;20721;47.402;8.550;2023-07-02T00:48:57;95732;;;20.14;63.95
2711;BME280;20721;47.402;8.550;2023-07-02T00:49:57;95734;;;20.10;64.09
2711;BME280;20721;47.402;8.550;2023-07-02T00:50:57;95733;;;20.08;64.32
2711;BME280;20721;47.402;8.550;2023-07-02T00:51:57;95733;;;19.98;64.60
2711;BME280;20721;47.402;8.550;2023-07-02T00:52:57;95729;;;19.93;64.49
2711;BME280;20721;47.402;8.550;2023-07-02T00:53:57;95735;;;19.86;64.95
2711;BME280;20721;47.402;8.550;2023-07-02T00:54:57;95735;;;19.81;65.08
2711;BME280;20721;47.402;8.550;2023-07-02T00:55:57;95735;;;19.77;65.12
2711;BME280;20721;47.402;8.550;2023-07-02T00:57:02;95735;;;19.73;65.34
2711;BME280;20721;47.402;8.550;2023-07-02T00:58:58;95737;;;19.74;65.55
2711;BME280;20721;47.402;8.550;2023-07-02T00:59:57;95738;;;19.77;65.95
2711;BME280;20721;47.402;8.550;2023-07-02T01:00:57;95742;;;19.80;65.98
2711;BME280;20721;47.402;8.550;2023-07-02T01:01:58;95742;;;19.79;65.78
2711;BME280;20721;47.402;8.550;2023-07-02T01:02:59;95742;;;19.81;65.66
2711;BME280;20721;47.402;8.550;2023-07-02T01:03:59;95746;;;19.85;66.14
2711;BME280;20721;47.402;8.550;2023-07-02T01:04:59;95744;;;19.89;65.97
2711;BME280;20721;47.402;8.550;2023-07-02T01:05:57;95749;;;19.91;66.18
2711;BME280;20721;47.402;8.550;2023-07-02T01:06:57;95751;;;19.93;66.79
2711;BME280;20721;47.402;8.550;2023-07-02T01:08:58;95747;;;19.91;66.61
2711;BME280;20721;47.402;8.550;2023-07-02T01:09:57;95752;;;19.90;66.67
2711;BME280;20721;47.402;8.550;2023-07-02T01:11:58;95759;;;19.88;66.60
2711;BME280;20721;47.402;8.550;2023-07-02T01:12:57;95756;;;19.86;66.70
2711;BME280;20721;47.402;8.550;2023-07-02T01:14:01;95758;;;19.84;67.09
2711;BME280;20721;47.402;8.550;2023-07-02T01:14:58;95754;;;19.76;66.66
2711;BME280;20721;47.402;8.550;2023-07-02T01:15:57;95750;;;19.70;67.08
2711;BME280;20721;47.402;8.550;2023-07-02T01:16:57;95753;;;19.65;67.28
2711;BME280;20721;47.402;8.550;2023-07-02T01:17:57;95749;;;19.61;67.54
2711;BME280;20721;47.402;8.550;2023-07-02T01:18:57;95754;;;19.50;67.89
2711;BME280;20721;47.402;8.550;2023-07-02T01:19:58;95754;;;19.46;67.87
2711;BME280;20721;47.402;8.550;2023-07-02T01:20:57;95751;;;19.33;68.25
2711;BME280;20721;47.402;8.550;2023-07-02T01:21:57;95747;;;19.24;68.28
2711;BME280;20721;47.402;8.550;2023-07-02T01:22:57;95746;;;19.22;68.86
2711;BME280;20721;47.402;8.550;2023-07-02T01:23:59;95742;;;19.17;69.44
2711;BME280;20721;47.402;8.550;2023-07-02T01:24:57;95746;;;19.16;69.26
2711;BME280;20721;47.402;8.550;2023-07-02T01:25:59;95740;;;19.15;69.22
2711;BME280;20721;47.402;8.550;2023-07-02T01:27:01;95749;;;19.19;69.29
2711;BME280;20721;47.402;8.550;2023-07-02T01:27:58;95746;;;19.22;69.29
2711;BME280;20721;47.402;8.550;2023-07-02T01:28:57;95748;;;19.27;69.18
2711;BME280;20721;47.402;8.550;2023-07-02T01:29:57;95744;;;19.28;69.28
2711;BME280;20721;47.402;8.550;2023-07-02T01:30:57;95747;;;19.25;68.99
2711;BME280;20721;47.402;8.550;2023-07-02T01:31:57;95744;;;19.18;68.86
2711;BME280;20721;47.402;8.550;2023-07-02T01:33:57;95745;;;19.19;69.90
2711;BME280;20721;47.402;8.550;2023-07-02T01:35:00;95744;;;19.24;69.24
2711;BME280;20721;47.402;8.550;2023-07-02T01:35:57;95743;;;19.23;69.06
2711;BME280;20721;47.402;8.550;2023-07-02T01:36:57;95744;;;19.24;68.77
2711;BME280;20721;47.402;8.550;2023-07-02T01:37:57;95741;;;19.15;68.62
2711;BME280;20721;47.402;8.550;2023-07-02T01:38:57;95744;;;19.08;68.86
2711;BME280;20721;47.402;8.550;2023-07-02T01:39:57;95745;;;19.04;69.03
2711;BME280;20721;47.402;8.550;2023-07-02T01:40:57;95746;;;19.08;68.84
2711;BME280;20721;47.402;8.550;2023-07-02T01:42:14;95746;;;19.11;68.67
2711;BME280;20721;47.402;8.550;2023-07-02T01:42:57;95746;;;19.05;68.30
2711;BME280;20721;47.402;8.550;2023-07-02T01:43:57;95746;;;19.10;68.81
2711;BME280;20721;47.402;8.550;2023-07-02T01:44:57;95748;;;19.07;68.55
2711;BME280;20721;47.402;8.550;2023-07-02T01:45:57;95753;;;19.05;68.91
2711;BME280;20721;47.402;8.550;2023-07-02T01:46:58;95752;;;19.10;69.26
2711;BME280;20721;47.402;8.550;2023-07-02T01:47:57;95752;;;19.07;68.49
2711;BME280;20721;47.402;8.550;2023-07-02T01:48:57;95752;;;19.09;68.74
2711;BME280;20721;47.402;8.550;2023-07-02T01:49:57;95753;;;19.07;68.39
2711;BME280;20721;47.402;8.550;2023-07-02T01:51:57;95756;;;19.06;68.91
2711;BME280;20721;47.402;8.550;2023-07-02T01:52:57;95757;;;19.04;69.14
2711;BME280;20721;47.402;8.550;2023-07-02T01:53:57;95754;;;19.06;68.96
2711;BME280;20721;47.402;8.550;2023-07-02T01:54:57;95756;;;19.07;69.08
2711;BME280;20721;47.402;8.550;2023-07-02T01:55:57;95756;;;19.05;68.90
2711;BME280;20721;47.402;8.550;2023-07-02T01:57:57;95759;;;19.02;69.43
2711;BME280;20721;47.402;8.550;2023-07-02T01:58:57;95759;;;18.97;68.88
2711;BME280;20721;47.402;8.550;2023-07-02T01:59:57;95757;;;18.88;69.10
2711;BME280;20721;47.402;8.550;2023-07-02T02:00:58;95758;;;18.87;69.12
2711;BME280;20721;47.402;8.550;2023-07-02T02:03:57;95763;;;18.92;68.99
2711;BME280;20721;47.402;8.550;2023-07-02T02:05:57;95762;;;18.97;68.63
2711;BME280;20721;47.402;8.550;2023-07-02T02:06:57;95762;;;18.98;68.11
2711;BME280;20721;47.402;8.550;2023-07-02T02:07:57;95764;;;18.93;68.34
2711;BME280;20721;47.402;8.550;2023-07-02T02:08:57;95761;;;18.90;68.51
2711;BME280;20721;47.402;8.550;2023-07-02T02:09:57;95765;;;18.89;68.41
2711;BME280;20721;47.402;8.550;2023-07-02T02:10:57;95769;;;18.80;68.53
2711;BME280;20721;47.402;8.550;2023-07-02T02:11:57;95763;;;18.66;68.86
2711;BME280;20721;47.402;8.550;2023-07-02T02:12:57;95768;;;18.63;69.41
2711;BME280;20721;47.402;8.550;2023-07-02T02:14:57;95774;;;18.67;69.29
2711;BME280;20721;47.402;8.550;2023-07-02T02:16:57;95767;;;18.66;68.84
2711;BME280;20721;47.402;8.550;2023-07-02T02:17:58;95768;;;18.69;68.58
2711;BME280;20721;47.402;8.550;2023-07-02T02:18:57;95765;;;18.74;68.75
2711;BME280;20721;47.402;8.550;2023-07-02T02:19:57;95768;;;18.78;68.51
2711;BME280;20721;47.402;8.550;2023-07-02T02:20:57;95765;;;18.81;68.24
2711;BME280;20721;47.402;8.550;2023-07-02T02:21:57;95767;;;18.76;68.33
2711;BME280;20721;47.402;8.550;2023-07-02T02:22:57;95763;;;18.78;68.11
2711;BME280;20721;47.402;8.550;2023-07-02T02:23:57;95767;;;18.82;67.98
2711;BME280;20721;47.402;8.550;2023-07-02T02:24:57;95764;;;18.85;67.81
2711;BME280;20721;47.402;8.550;2023-07-02T02:25:57;95763;;;18.88;67.53
2711;BME280;20721;47.402;8.550;2023-07-02T02:26:57;95765;;;18.92;67.37
2711;BME280;20721;47.402;8.550;2023-07-02T02:27:57;95767;;;18.90;66.62
2711;BME280;20721;47.402;8.550;2023-07-02T02:28:57;95766;;;18.83;67.14
2711;BME280;20721;47.402;8.550;2023-07-02T02:29:57;95767;;;18.75;67.21
2711;BME280;20721;47.402;8.550;2023-07-02T02:30:57;95765;;;18.66;67.08
2711;BME280;20721;47.402;8.550;2023-07-02T02:31:57;95763;;;18.63;67.76
2711;BME280;20721;47.402;8.550;2023-07-02T02:32:57;95770;;;18.61;67.53
2711;BME280;20721;47.402;8.550;2023-07-02T02:33:57;95764;;;18.60;67.59
2711;BME280;20721;47.402;8.550;2023-07-02T02:34:57;95768;;;18.63;67.66
2711;BME280;20721;47.402;8.550;2023-07-02T02:35:57;95767;;;18.64;67.55
2711;BME280;20721;47.402;8.550;2023-07-02T02:36:57;95769;;;18.69;67.54
2711;BME280;20721;47.402;8.550;2023-07-02T02:38:01;95770;;;18.70;67.29
2711;BME280;20721;47.402;8.550;2023-07-02T02:38:57;95767;;;18.68;67.22
2711;BME280;20721;47.402;8.550;2023-07-02T02:39:57;95770;;;18.72;67.72
2711;BME280;20721;47.402;8.550;2023-07-02T02:40:57;95772;;;18.69;67.27
2711;BME280;20721;47.402;8.550;2023-07-02T02:41:57;95770;;;18.67;67.28
2711;BME280;20721;47.402;8.550;2023-07-02T02:42:57;95769;;;18.65;67.09
2711;BME280;20721;47.402;8.550;2023-07-02T02:44:57;95773;;;18.66;66.92
2711;BME280;20721;47.402;8.550;2023-07-02T02:45:57;95774;;;18.62;66.94
2711;BME280;20721;47.402;8.550;2023-07-02T02:46:57;95770;;;18.57;67.34
2711;BME280;20721;47.402;8.550;2023-07-02T02:47:58;95771;;;18.53;67.33
2711;BME280;20721;47.402;8.550;2023-07-02T02:49:58;95770;;;18.51;67.75
2711;BME280;20721;47.402;8.550;2023-07-02T02:50:59;95769;;;18.39;68.02
2711;BME280;20721;47.402;8.550;2023-07-02T02:51:57;95771;;;18.40;67.79
2711;BME280;20721;47.402;8.550;2023-07-02T02:52:58;95771;;;18.33;67.64
2711;BME280;20721;47.402;8.550;2023-07-02T02:53:57;95767;;;18.32;68.41
2711;BME280;20721;47.402;8.550;2023-07-02T02:54:57;95767;;;18.27;67.97
2711;BME280;20721;47.402;8.550;2023-07-02T02:55:57;95766;;;18.26;68.24
2711;BME280;20721;47.402;8.550;2023-07-02T02:56:57;95767;;;18.28;68.49
2711;BME280;20721;47.402;8.550;2023-07-02T02:57:57;95765;;;18.34;68.35
2711;BME280;20721;47.402;8.550;2023-07-02T02:58:57;95768;;;18.37;68.55
2711;BME280;20721;47.402;8.550;2023-07-02T02:59:58;95772;;;18.33;67.66
2711;BME280;20721;47.402;8.550;2023-07-02T03:00:58;95767;;;18.28;67.51
2711;BME280;20721;47.402;8.550;2023-07-02T03:01:58;95772;;;18.29;67.84
2711;BME280;20721;47.402;8.550;2023-07-02T03:02:58;95771;;;18.27;67.76
2711;BME280;20721;47.402;8.550;2023-07-02T03:03:58;95774;;;18.32;67.74
2711;BME280;20721;47.402;8.550;2023-07-02T03:05:02;95771;;;18.37;67.52
2711;BME280;20721;47.402;8.550;2023-07-02T03:05:58;95776;;;18.40;67.38
2711;BME280;20721;47.402;8.550;2023-07-02T03:06:57;95773;;;18.37;67.50
2711;BME280;20721;47.402;8.550;2023-07-02T03:07:58;95779;;;18.38;67.54
2711;BME280;20721;47.402;8.550;2023-07-02T03:08:57;95776;;;18.39;67.44
2711;BME280;20721;47.402;8.550;2023-07-02T03:10:57;95784;;;18.43;67.80
2711;BME280;20721;47.402;8.550;2023-07-02T03:11:58;95783;;;18.48;67.46
2711;BME280;20721;47.402;8.550;2023-07-02T03:13:57;95786;;;18.49;67.06
2711;BME280;20721;47.402;8.550;2023-07-02T03:14:57;95790;;;18.50;67.12
2711;BME280;20721;47.402;8.550;2023-07-02T03:15:58;95790;;;18.52;67.15
2711;BME280;20721;47.402;8.550;2023-07-02T03:16:58;95793;;;18.56;66.94
2711;BME280;20721;47.402;8.550;2023-07-02T03:17:57;95791;;;18.54;66.95
2711;BME280;20721;47.402;8.550;2023-07-02T03:18:59;95793;;;18.55;67.02
2711;BME280;20721;47.402;8.550;2023-07-02T03:19:58;95794;;;18.52;67.38
2711;BME280;20721;47.402;8.550;2023-07-02T03:20:58;95793;;;18.50;67.21
2711;BME280;20721;47.402;8.550;2023-07-02T03:21:58;95796;;;18.48;67.24
2711;BME280;20721;47.402;8.550;2023-07-02T03:23:57;95795;;;18.46;67.16
2711;BME280;20721;47.402;8.550;2023-07-02T03:24:58;95796;;;18.43;67.21
2711;BME280;20721;47.402;8.550;2023-07-02T03:25:57;95800;;;18.40;67.32
2711;BME280;20721;47.402;8.550;2023-07-02T03:26:58;95797;;;18.44;67.49
2711;BME280;20721;47.402;8.550;2023-07-02T03:27:58;95802;;;18.49;67.34
2711;BME280;20721;47.402;8.550;2023-07-02T03:28:58;95806;;;18.45;67.04
2711;BME280;20721;47.402;8.550;2023-07-02T03:29:58;95805;;;18.49;67.23
2711;BME280;20721;47.402;8.550;2023-07-02T03:30:57;95809;;;18.54;67.22
2711;BME280;20721;47.402;8.550;2023-07-02T03:31:58;95808;;;18.56;66.89
2711;BME280;20721;47.402;8.550;2023-07-02T03:32:58;95807;;;18.58;67.01
2711;BME280;20721;47.402;8.550;2023-07-02T03:33:57;95806;;;18.54;66.93
2711;BME280;20721;47.402;8.550;2023-07-02T03:34:58;95811;;;18.55;66.76
2711;BME280;20721;47.402;8.550;2023-07-02T03:35:57;95810;;;18.52;66.83
2711;BME280;20721;47.402;8.550;2023-07-02T03:36:58;95806;;;18.51;66.87
2711;BME280;20721;47.402;8.550;2023-07-02T03:38:58;95806;;;18.54;66.58
2711;BME280;20721;47.402;8.550;2023-07-02T03:40:58;95804;;;18.50;66.28
2711;BME280;20721;47.402;8.550;2023-07-02T03:41:58;95803;;;18.47;66.30
2711;BME280;20721;47.402;8.550;2023-07-02T03:42:58;95805;;;18.45;66.38
2711;BME280;20721;47.402;8.550;2023-07-02T03:43:57;95812;;;18.39;65.75
2711;BME280;20721;47.402;8.550;2023-07-02T03:44:58;95811;;;18.34;65.96
2711;BME280;20721;47.402;8.550;2023-07-02T03:46:57;95811;;;18.35;65.96
2711;BME280;20721;47.402;8.550;2023-07-02T03:48:58;95812;;;18.37;65.69
2711;BME280;20721;47.402;8.550;2023-07-02T03:49:58;95817;;;18.40;65.70
2711;BME280;20721;47.402;8.550;2023-07-02T03:50:58;95812;;;18.47;65.58
2711;BME280;20721;47.402;8.550;2023-07-02T03:51:58;95812;;;18.50;65.34
2711;BME280;20721;47.402;8.550;2023-07-02T03:52:58;95810;;;18.53;65.27
2711;BME280;20721;47.402;8.550;2023-07-02T03:54:58;95812;;;18.52;64.64
2711;BME280;20721;47.402;8.550;2023-07-02T03:57:58;95819;;;18.50;64.44
2711;BME280;20721;47.402;8.550;2023-07-02T03:58:58;95823;;;18.47;64.12
2711;BME280;20721;47.402;8.550;2023-07-02T03:59:58;95820;;;18.43;64.12
2711;BME280;20721;47.402;8.550;2023-07-02T04:00:58;95819;;;18.38;64.46
2711;BME280;20721;47.402;8.550;2023-07-02T04:01:58;95819;;;18.32;64.50
2711;BME280;20721;47.402;8.550;2023-07-02T04:02:58;95822;;;18.30;64.36
2711;BME280;20721;47.402;8.550;2023-07-02T04:03:58;95820;;;18.32;64.65
2711;BME280;20721;47.402;8.550;2023-07-02T04:04:58;95824;;;18.37;64.23
2711;BME280;20721;47.402;8.550;2023-07-02T04:05:58;95825;;;18.36;63.88
2711;BME280;20721;47.402;8.550;2023-07-02T04:06:58;95829;;;18.33;64.06
2711;BME280;20721;47.402;8.550;2023-07-02T04:08:58;95831;;;18.27;64.35
2711;BME280;20721;47.402;8.550;2023-07-02T04:09:58;95828;;;18.22;64.27
2711;BME280;20721;47.402;8.550;2023-07-02T04:10:58;95830;;;18.23;64.27
2711;BME280;20721;47.402;8.550;2023-07-02T04:11:58;95835;;;18.25;64.16
2711;BME280;20721;47.402;8.550;2023-07-02T04:13:58;95835;;;18.26;64.24
2711;BME280;20721;47.402;8.550;2023-07-02T04:14:58;95833;;;18.29;64.20
2711;BME280;20721;47.402;8.550;2023-07-02T04:15:58;95834;;;18.32;64.04
2711;BME280;20721;47.402;8.550;2023-07-02T04:16:58;95830;;;18.35;63.83
2711;BME280;20721;47.402;8.550;2023-07-02T04:18:58;95828;;;18.34;63.61
2711;BME280;20721;47.402;8.550;2023-07-02T04:19:59;95832;;;18.31;64.09
2711;BME280;20721;47.402;8.550;2023-07-02T04:22:58;95831;;;18.34;63.81
2711;BME280;20721;47.402;8.550;2023-07-02T04:23:58;95829;;;18.32;63.98
2711;BME280;20721;47.402;8.550;2023-07-02T04:25:02;95832;;;18.37;63.80
2711;BME280;20721;47.402;8.550;2023-07-02T04:26:08;95833;;;18.40;64.14
2711;BME280;20721;47.402;8.550;2023-07-02T04:27:08;95831;;;18.43;63.93
2711;BME280;20721;47.402;8.550;2023-07-02T04:27:58;95835;;;18.40;63.77
2711;BME280;20721;47.402;8.550;2023-07-02T04:28:59;95831;;;18.39;63.89
2711;BME280;20721;47.402;8.550;2023-07-02T04:29:58;95832;;;18.37;63.98
2711;BME280;20721;47.402;8.550;2023-07-02T04:30:58;95833;;;18.40;63.92
2711;BME280;20721;47.402;8.550;2023-07-02T04:31:58;95834;;;18.44;64.01
2711;BME280;20721;47.402;8.550;2023-07-02T04:32:58;95836;;;18.48;64.05
2711;BME280;20721;47.402;8.550;2023-07-02T04:33:59;95833;;;18.51;64.05
2711;BME280;20721;47.402;8.550;2023-07-02T04:34:58;95835;;;18.50;64.02
2711;BME280;20721;47.402;8.550;2023-07-02T04:35:58;95836;;;18.53;64.06
2711;BME280;20721;47.402;8.550;2023-07-02T04:36:58;95837;;;18.57;63.90
2711;BME280;20721;47.402;8.550;2023-07-02T04:37:58;95838;;;18.58;63.80
2711;BME280;20721;47.402;8.550;2023-07-02T04:38:58;95834;;;18.53;63.90
2711;BME280;20721;47.402;8.550;2023-07-02T04:39:58;95838;;;18.50;64.04
2711;BME280;20721;47.402;8.550;2023-07-02T04:41:05;95836;;;18.54;64.23
2711;BME280;20721;47.402;8.550;2023-07-02T04:41:58;95838;;;18.60;64.26
2711;BME280;20721;47.402;8.550;2023-07-02T04:42:58;95837;;;18.62;64.06
2711;BME280;20721;47.402;8.550;2023-07-02T04:43:58;95838;;;18.59;63.90
2711;BME280;20721;47.402;8.550;2023-07-02T04:45:06;95833;;;18.60;64.40
2711;BME280;20721;47.402;8.550;2023-07-02T04:45:58;95837;;;18.65;64.23
2711;BME280;20721;47.402;8.550;2023-07-02T04:46:59;95837;;;18.64;64.05
2711;BME280;20721;47.402;8.550;2023-07-02T04:48:58;95832;;;18.67;64.29
2711;BME280;20721;47.402;8.550;2023-07-02T04:49:58;95835;;;18.70;64.03
2711;BME280;20721;47.402;8.550;2023-07-02T04:50:58;95840;;;18.74;63.75
2711;BME280;20721;47.402;8.550;2023-07-02T04:51:58;95835;;;18.78;63.82
2711;BME280;20721;47.402;8.550;2023-07-02T04:52:58;95842;;;18.81;63.60
2711;BME280;20721;47.402;8.550;2023-07-02T04:53:58;95845;;;18.82;63.56
2711;BME280;20721;47.402;8.550;2023-07-02T04:54:58;95843;;;18.83;63.37
2711;BME280;20721;47.402;8.550;2023-07-02T04:55:58;95844;;;18.82;63.64
2711;BME280;20721;47.402;8.550;2023-07-02T04:56:58;95843;;;18.85;63.54
2711;BME280;20721;47.402;8.550;2023-07-02T04:57:58;95843;;;18.89;63.51
2711;BME280;20721;47.402;8.550;2023-07-02T04:58:58;95843;;;18.93;63.53
2711;BME280;20721;47.402;8.550;2023-07-02T05:00:58;95842;;;18.90;63.24
2711;BME280;20721;47.402;8.550;2023-07-02T05:01:58;95842;;;18.85;63.89
2711;BME280;20721;47.402;8.550;2023-07-02T05:03:58;95842;;;18.88;63.47
2711;BME280;20721;47.402;8.550;2023-07-02T05:04:58;95842;;;18.90;63.51
2711;BME280;20721;47.402;8.550;2023-07-02T05:05:58;95843;;;18.92;63.97
2711;BME280;20721;47.402;8.550;2023-07-02T05:07:58;95845;;;18.97;63.79
2711;BME280;20721;47.402;8.550;2023-07-02T05:08:58;95846;;;18.99;63.26
2711;BME280;20721;47.402;8.550;2023-07-02T05:09:58;95845;;;19.01;63.08
2711;BME280;20721;47.402;8.550;2023-07-02T05:10:58;95846;;;19.07;63.27
2711;BME280;20721;47.402;8.550;2023-07-02T05:11:58;95850;;;19.13;63.31
2711;BME280;20721;47.402;8.550;2023-07-02T05:12:58;95853;;;19.18;63.24
2711;BME280;20721;47.402;8.550;2023-07-02T05:13:58;95851;;;19.20;62.84
2711;BME280;20721;47.402;8.550;2023-07-02T05:14:58;95855;;;19.21;62.55
2711;BME280;20721;47.402;8.550;2023-07-02T05:15:58;95857;;;19.20;62.80
2711;BME280;20721;47.402;8.550;2023-07-02T05:16:58;95857;;;19.22;62.62
2711;BME280;20721;47.402;8.550;2023-07-02T05:17:58;95862;;;19.20;62.86
2711;BME280;20721;47.402;8.550;2023-07-02T05:20:58;95863;;;19.17;63.15
2711;BME280;20721;47.402;8.550;2023-07-02T05:21:58;95863;;;19.07;63.31
2711;BME280;20721;47.402;8.550;2023-07-02T05:22:58;95864;;;19.04;63.64
2711;BME280;20721;47.402;8.550;2023-07-02T05:23:58;95867;;;19.08;63.77
2711;BME280;20721;47.402;8.550;2023-07-02T05:24:58;95867;;;19.13;63.68
2711;BME280;20721;47.402;8.550;2023-07-02T05:25:58;95868;;;19.20;63.55
2711;BME280;20721;47.402;8.550;2023-07-02T05:26:58;95868;;;19.25;63.27
2711;BME280;20721;47.402;8.550;2023-07-02T05:27:58;95870;;;19.29;63.62
2711;BME280;20721;47.402;8.550;2023-07-02T05:28:58;95871;;;19.28;63.37
2711;BME280;20721;47.402;8.550;2023-07-02T05:29:58;95872;;;19.22;63.55
2711;BME280;20721;47.402;8.550;2023-07-02T05:30:58;95871;;;19.19;63.63
2711;BME280;20721;47.402;8.550;2023-07-02T05:31:58;95871;;;19.10;63.73
2711;BME280;20721;47.402;8.550;2023-07-02T05:32:58;95874;;;19.06;64.02
2711;BME280;20721;47.402;8.550;2023-07-02T05:34:58;95878;;;19.11;63.86
2711;BME280;20721;47.402;8.550;2023-07-02T05:35:58;95877;;;19.13;63.87
2711;BME280;20721;47.402;8.550;2023-07-02T05:36:58;95877;;;19.16;63.73
2711;BME280;20721;47.402;8.550;2023-07-02T05:37:58;95879;;;19.20;63.61
2711;BME280;20721;47.402;8.550;2023-07-02T05:38:58;95877;;;19.23;63.76
2711;BME280;20721;47.402;8.550;2023-07-02T05:39:58;95878;;;19.28;63.52
2711;BME280;20721;47.402;8.550;2023-07-02T05:40:58;95878;;;19.35;63.39
2711;BME280;20721;47.402;8.550;2023-07-02T05:41:58;95874;;;19.41;63.24
2711;BME280;20721;47.402;8.550;2023-07-02T05:42:58;95877;;;19.48;63.17
2711;BME280;20721;47.402;8.550;2023-07-02T05:43:58;95876;;;19.49;63.44
2711;BME280;20721;47.402;8.550;2023-07-02T05:44:58;95873;;;19.53;63.22
2711;BME280;20721;47.402;8.550;2023-07-02T05:46:00;95876;;;19.54;62.76
2711;BME280;20721;47.402;8.550;2023-07-02T05:46:58;95876;;;19.55;62.59
2711;BME280;20721;47.402;8.550;2023-07-02T05:47:58;95876;;;19.56;62.47
2711;BME280;20721;47.402;8.550;2023-07-02T05:48:59;95875;;;19.54;62.65
2711;BME280;20721;47.402;8.550;2023-07-02T05:49:58;95875;;;19.55;62.65
2711;BME280;20721;47.402;8.550;2023-07-02T05:50:58;95876;;;19.61;62.87
2711;BME280;20721;47.402;8.550;2023-07-02T05:51:58;95879;;;19.68;62.76
2711;BME280;20721;47.402;8.550;2023-07-02T05:52:58;95882;;;19.75;62.59
2711;BME280;20721;47.402;8.550;2023-07-02T05:53:58;95882;;;19.78;62.49
2711;BME280;20721;47.402;8.550;2023-07-02T05:54:58;95886;;;19.80;62.14
2711;BME280;20721;47.402;8.550;2023-07-02T05:55:58;95884;;;19.83;61.71
2711;BME280;20721;47.402;8.550;2023-07-02T05:56:58;95880;;;19.86;61.59
2711;BME280;20721;47.402;8.550;2023-07-02T05:58:01;95887;;;19.83;61.45
2711;BME280;20721;47.402;8.550;2023-07-02T05:58:58;95881;;;19.82;61.92
2711;BME280;20721;47.402;8.550;2023-07-02T05:59:58;95888;;;19.85;61.98
2711;BME280;20721;47.402;8.550;2023-07-02T06:00:58;95887;;;19.87;62.07
2711;BME280;20721;47.402;8.550;2023-07-02T06:01:58;95887;;;19.90;62.14
2711;BME280;20721;47.402;8.550;2023-07-02T06:02:58;95888;;;19.85;62.18
2711;BME280;20721;47.402;8.550;2023-07-02T06:03:58;95887;;;19.83;62.33
2711;BME280;20721;47.402;8.550;2023-07-02T06:04:58;95886;;;19.84;62.35
2711;BME280;20721;47.402;8.550;2023-07-02T06:05:58;95891;;;19.86;62.29
2711;BME280;20721;47.402;8.550;2023-07-02T06:06:58;95890;;;19.89;62.22
2711;BME280;20721;47.402;8.550;2023-07-02T06:07:58;95888;;;19.91;62.28
2711;BME280;20721;47.402;8.550;2023-07-02T06:08:58;95892;;;19.93;62.17
2711;BME280;20721;47.402;8.550;2023-07-02T06:09:58;95888;;;19.96;62.24
2711;BME280;20721;47.402;8.550;2023-07-02T06:10:58;95892;;;19.89;62.32
2711;BME280;20721;47.402;8.550;2023-07-02T06:11:58;95891;;;19.81;62.55
2711;BME280;20721;47.402;8.550;2023-07-02T06:12:58;95893;;;19.80;62.69
2711;BME280;20721;47.402;8.550;2023-07-02T06:13:58;95897;;;19.77;62.82
2711;BME280;20721;47.402;8.550;2023-07-02T06:14:58;95897;;;19.81;62.79
2711;BME280;20721;47.402;8.550;2023-07-02T06:15:58;95897;;;19.77;62.82
2711;BME280;20721;47.402;8.550;2023-07-02T06:16:59;95901;;;19.75;62.58
2711;BME280;20721;47.402;8.550;2023-07-02T06:17:58;95901;;;19.62;63.00
2711;BME280;20721;47.402;8.550;2023-07-02T06:18:58;95904;;;19.56;63.41
2711;BME280;20721;47.402;8.550;2023-07-02T06:19:58;95906;;;19.57;63.44